Terminal Aerodrome Forecast
Issued by NWS Burlington, VT

Home | Current Version | Previous Version | Text Only | Print | Product List | Glossary On
Versions: 1 2 3 4 5 6 7 8 9 10 11 12 13 14 15 16 17 18 19 20 21 22 23 24 25 26 27
000
FTUS41 KBTV 282200 AAC
TAFBTV
TAF AMD
KBTV 282222Z 2822/2918 34015KT 5SM -RA BR OVC012
      TEMPO 2822/2902 1SM +RA BR OVC005
     FM290200 33004KT 6SM -RA BR OVC025
     FM290300 VRB03KT P6SM OVC035
     FM291200 28008KT P6SM SCT050=

USA.gov is the U.S. government's official web portal to all federal, state and local government web resources and services.